Time;durP1;ratioP1;P1;durP2;ratioP2;P2;SDS_P1;SDS_P2;PMS_P1;PMS_P2;Temp;Humidity;BMP_temperature;BMP_pressure;BME280_temperature;BME280_humidity;BME280_pressure;Samples;Min_cycle;Max_cycle;Signal;HPM_P1;HPM_P2
2022/01/28 00:02:32;;;;;;;45.67;6.90;;;5.30;99.90;;;;;;5012706;28;20442;-51
2022/01/28 00:04:57;;;;;;;44.10;5.82;;;5.20;99.90;;;;;;5012764;28;20455;-52
2022/01/28 00:07:23;;;;;;;43.08;7.18;;;5.20;99.90;;;;;;5013572;28;20026;-52
2022/01/28 00:09:48;;;;;;;45.38;7.03;;;5.10;99.90;;;;;;5011823;28;20566;-53
2022/01/28 00:12:14;;;;;;;35.58;5.57;;;5.10;99.90;;;;;;5020529;28;20038;-50
2022/01/28 00:14:52;;;;;;;43.92;6.28;;;5.10;99.90;;;;;;5013259;28;20104;-50
2022/01/28 00:38:54;;;;;;;27.95;4.43;;;5.00;99.90;;;;;;5032498;28;20383;-59
2022/01/28 00:41:20;;;;;;;25.15;4.55;;;4.90;99.90;;;;;;5032440;28;20074;-55
2022/01/28 00:43:45;;;;;;;25.88;4.68;;;4.90;99.90;;;;;;5031857;28;20136;-58
2022/01/28 00:46:11;;;;;;;30.98;4.30;;;4.90;99.90;;;;;;5032093;28;20033;-60
2022/01/28 00:48:38;;;;;;;34.67;4.72;;;4.90;99.90;;;;;;5032217;28;20398;-58
2022/01/28 00:51:04;;;;;;;26.85;4.13;;;4.90;99.90;;;;;;5031944;28;20033;-57
2022/01/28 00:53:29;;;;;;;44.20;5.70;;;4.90;99.90;;;;;;5030069;28;20029;-60
2022/01/28 00:55:57;;;;;;;27.15;4.35;;;4.80;99.90;;;;;;5028030;28;20678;-60
2022/01/28 00:58:23;;;;;;;30.17;5.07;;;4.90;99.90;;;;;;5020884;28;20018;-60
2022/01/28 01:00:49;;;;;;;29.58;4.72;;;4.90;99.90;;;;;;5012237;28;20133;-60
2022/01/28 01:03:15;;;;;;;30.25;5.03;;;4.80;99.90;;;;;;5011521;28;20065;-59
2022/01/28 01:05:41;;;;;;;20.70;3.40;;;4.80;99.90;;;;;;5012640;28;20506;-51
2022/01/28 01:08:06;;;;;;;36.88;6.25;;;4.80;99.90;;;;;;5012093;28;20033;-52
2022/01/28 01:10:33;;;;;;;33.58;5.45;;;4.80;99.90;;;;;;5012511;28;20080;-58
2022/01/28 01:13:00;;;;;;;37.53;5.57;;;4.80;99.90;;;;;;5012642;28;20084;-51
2022/01/28 01:15:31;;;;;;;48.88;6.57;;;4.80;99.90;;;;;;5013488;28;20037;-51
2022/01/28 01:20:49;;;;;;;38.97;5.63;;;4.80;99.90;;;;;;5012141;28;20037;-54
2022/01/28 01:25:52;;;;;;;51.00;7.32;;;4.80;99.90;;;;;;5011808;28;20559;-51
2022/01/28 01:28:20;;;;;;;51.22;6.65;;;4.80;99.90;;;;;;5011653;28;20049;-51
2022/01/28 01:30:47;;;;;;;39.47;5.55;;;4.80;99.90;;;;;;5010419;28;20375;-54
2022/01/28 01:33:19;;;;;;;31.17;4.90;;;4.80;99.90;;;;;;5019918;28;20026;-53
2022/01/28 01:35:44;;;;;;;44.63;6.25;;;4.80;99.90;;;;;;5031213;28;20108;-52
2022/01/28 01:38:11;;;;;;;40.28;6.07;;;4.90;99.90;;;;;;5031107;28;20155;-54
2022/01/28 01:40:54;;;;;;;34.42;5.13;;;4.80;99.90;;;;;;5031260;28;20037;-51
2022/01/28 01:54:16;;;;;;;33.75;5.03;;;4.90;99.90;;;;;;5031189;28;20055;-55
2022/01/28 01:56:42;;;;;;;41.83;5.53;;;4.90;99.90;;;;;;5030753;28;20483;-55
2022/01/28 01:59:08;;;;;;;39.08;6.68;;;4.90;99.90;;;;;;5030862;28;20479;-59
2022/01/28 02:01:35;;;;;;;48.40;5.93;;;4.90;99.90;;;;;;5030517;28;20064;-52
2022/01/28 02:04:01;;;;;;;51.65;5.78;;;5.00;99.90;;;;;;5030314;28;20029;-51
2022/01/28 02:06:26;;;;;;;42.83;4.97;;;5.00;99.90;;;;;;5030639;28;20081;-56
2022/01/28 02:08:52;;;;;;;36.63;6.15;;;5.10;99.90;;;;;;5015431;28;20045;-55
2022/01/28 02:11:18;;;;;;;52.45;7.00;;;5.00;99.90;;;;;;5019587;28;20083;-56
2022/01/28 02:13:49;;;;;;;43.00;6.03;;;4.90;99.90;;;;;;5009693;28;20083;-56
2022/01/28 02:16:15;;;;;;;45.25;7.32;;;4.80;99.90;;;;;;5010507;28;20090;-58
2022/01/28 02:18:41;;;;;;;47.22;5.65;;;4.70;99.90;;;;;;5011198;28;20034;-59
2022/01/28 02:21:10;;;;;;;35.28;6.03;;;4.70;99.90;;;;;;5011086;28;20395;-58
2022/01/28 02:23:36;;;;;;;47.22;6.00;;;4.70;99.90;;;;;;5010332;28;20026;-53
2022/01/28 02:26:03;;;;;;;49.47;6.30;;;4.60;99.90;;;;;;5010436;28;20038;-56
2022/01/28 02:28:33;;;;;;;48.88;6.90;;;4.60;99.90;;;;;;5010860;28;20029;-51
2022/01/28 02:31:01;;;;;;;44.08;7.38;;;4.70;99.90;;;;;;5010173;28;20403;-50
2022/01/28 02:33:27;;;;;;;47.90;6.55;;;4.70;99.90;;;;;;5008810;28;20026;-50
2022/01/28 02:35:53;;;;;;;47.75;6.63;;;4.70;99.90;;;;;;5009323;28;20041;-51
2022/01/28 02:38:21;;;;;;;46.55;5.85;;;4.80;99.90;;;;;;5018183;28;20383;-51
2022/01/28 02:40:54;;;;;;;42.60;7.13;;;4.80;99.90;;;;;;5009142;28;20038;-52
2022/01/28 02:45:51;;;;;;;49.08;7.00;;;4.90;99.90;;;;;;5010386;28;20040;-56
2022/01/28 02:48:37;;;;;;;58.33;7.45;;;4.90;99.90;;;;;;5008819;28;20572;-57
2022/01/28 02:51:23;;;;;;;48.35;6.15;;;4.90;99.90;;;;;;5010165;28;20030;-55
2022/01/28 02:53:54;;;;;;;52.38;6.20;;;4.90;99.90;;;;;;5009500;28;20057;-58
2022/01/28 02:56:45;;;;;;;51.42;8.13;;;5.00;99.90;;;;;;5010544;28;20149;-53
2022/01/28 02:59:09;;;;;;;65.22;8.02;;;5.00;99.90;;;;;;5010107;28;20030;-57
2022/01/28 03:01:34;;;;;;;44.90;6.25;;;5.00;99.90;;;;;;5012213;28;20083;-52
2022/01/28 03:04:02;;;;;;;53.10;6.97;;;5.00;99.90;;;;;;5014229;28;20112;-53
2022/01/28 03:06:28;;;;;;;53.88;6.25;;;5.00;99.90;;;;;;5011253;28;20463;-52
2022/01/28 03:08:59;;;;;;;49.90;7.30;;;5.00;99.90;;;;;;5010087;28;20473;-54
2022/01/28 03:11:42;;;;;;;53.35;9.05;;;5.00;99.90;;;;;;5010231;28;20117;-51
2022/01/28 03:19:27;;;;;;;54.67;8.00;;;5.00;99.90;;;;;;5009531;28;20041;-55
2022/01/28 03:21:57;;;;;;;53.95;7.03;;;5.10;99.90;;;;;;5009208;28;20030;-53
2022/01/28 03:24:25;;;;;;;42.13;6.22;;;5.10;99.90;;;;;;5010139;28;20026;-50
2022/01/28 03:26:56;;;;;;;45.28;6.47;;;5.10;99.90;;;;;;5014223;28;20108;-54
2022/01/28 03:29:21;;;;;;;50.10;5.75;;;5.10;99.90;;;;;;5011619;28;20038;-54
2022/01/28 03:31:47;;;;;;;37.95;5.32;;;5.10;99.90;;;;;;5009327;28;20030;-52
2022/01/28 03:34:13;;;;;;;55.22;7.30;;;5.10;99.90;;;;;;5009559;28;20041;-52
2022/01/28 03:36:39;;;;;;;42.20;5.80;;;5.10;99.90;;;;;;5008576;28;20068;-52
2022/01/28 03:39:07;;;;;;;38.25;5.35;;;5.00;99.90;;;;;;5009597;28;20022;-50
2022/01/28 03:41:33;;;;;;;33.58;4.65;;;4.90;99.90;;;;;;5009611;28;20136;-52
2022/01/28 03:44:00;;;;;;;38.33;5.47;;;4.80;99.90;;;;;;5009228;28;20030;-53
2022/01/28 03:46:28;;;;;;;40.03;5.63;;;4.80;99.90;;;;;;5010173;28;20037;-54
2022/01/28 03:48:55;;;;;;;33.00;4.22;;;4.60;99.90;;;;;;5009713;28;20030;-52
2022/01/28 03:51:21;;;;;;;33.47;5.63;;;4.60;99.90;;;;;;5011979;28;20100;-56
2022/01/28 03:53:47;;;;;;;45.47;5.82;;;4.50;99.90;;;;;;5015612;28;20030;-51
2022/01/28 03:56:13;;;;;;;38.97;5.35;;;4.50;99.90;;;;;;5009424;28;20112;-52
2022/01/28 03:58:38;;;;;;;43.10;6.32;;;4.40;99.90;;;;;;5009916;28;20369;-53
2022/01/28 04:01:10;;;;;;;32.03;4.88;;;4.50;99.90;;;;;;5009478;28;20030;-56
2022/01/28 04:11:35;;;;;;;38.50;5.75;;;4.60;99.90;;;;;;5009680;28;20092;-53
2022/01/28 04:14:11;;;;;;;31.10;4.90;;;4.60;99.90;;;;;;5009459;28;20033;-54
2022/01/28 04:19:22;;;;;;;46.78;6.50;;;4.70;99.90;;;;;;5009654;28;20157;-56
2022/01/28 04:21:47;;;;;;;36.00;5.05;;;4.70;99.90;;;;;;5009086;28;20509;-57
2022/01/28 04:24:13;;;;;;;33.72;5.15;;;4.70;99.90;;;;;;5009285;28;20128;-58
2022/01/28 04:26:39;;;;;;;47.60;6.63;;;4.70;99.90;;;;;;5008705;28;20049;-53
2022/01/28 04:29:06;;;;;;;52.55;7.05;;;4.70;99.90;;;;;;5016691;28;20104;-59
2022/01/28 04:31:32;;;;;;;52.05;6.07;;;4.70;99.90;;;;;;5011746;28;20037;-61
2022/01/28 04:34:00;;;;;;;42.78;5.97;;;4.60;99.90;;;;;;5010030;28;20038;-60
2022/01/28 04:36:29;;;;;;;42.75;6.05;;;4.60;99.90;;;;;;5012152;28;20391;-60
2022/01/28 04:39:07;;;;;;;40.83;6.07;;;4.60;99.90;;;;;;5011803;28;20502;-57
2022/01/28 04:41:50;;;;;;;45.25;5.72;;;4.60;99.90;;;;;;5012348;28;20044;-56
2022/01/28 04:44:22;;;;;;;61.70;6.60;;;4.50;99.90;;;;;;5011886;28;20033;-52
2022/01/28 04:46:57;;;;;;;;;;;4.50;99.90;;;;;;5011063;28;20112;-53
2022/01/28 04:49:36;;;;;;;45.45;7.28;;;4.50;99.90;;;;;;5012280;28;19987;-55
2022/01/28 05:08:30;;;;;;;30.52;6.25;;;4.50;99.90;;;;;;5013445;28;20053;-59
2022/01/28 05:10:39;;;;;;;41.20;5.93;;;4.50;99.90;;;;;;5012677;28;20061;-59
2022/01/28 05:26:24;;;;;;;61.50;6.75;;;4.70;99.90;;;;;;5010687;28;20734;-59
2022/01/28 05:28:50;;;;;;;35.80;5.88;;;4.60;99.90;;;;;;5011030;28;20105;-53
2022/01/28 05:31:17;;;;;;;47.25;6.22;;;4.60;99.90;;;;;;5009713;28;20060;-52
2022/01/28 05:33:42;;;;;;;42.55;5.35;;;4.60;99.90;;;;;;5010037;28;20026;-56
2022/01/28 05:36:08;;;;;;;38.47;5.57;;;4.50;99.90;;;;;;5010657;28;20049;-55
2022/01/28 05:38:34;;;;;;;38.42;5.18;;;4.60;99.90;;;;;;5011194;28;20128;-55
2022/01/28 05:40:59;;;;;;;46.08;5.75;;;4.50;99.90;;;;;;5009733;28;20084;-53
2022/01/28 05:43:25;;;;;;;44.35;6.18;;;4.60;99.90;;;;;;5019931;28;20022;-58
2022/01/28 05:45:51;;;;;;;41.72;5.65;;;4.60;99.90;;;;;;5012950;28;20510;-58
2022/01/28 05:48:19;;;;;;;43.00;5.30;;;4.70;99.90;;;;;;4999663;28;20076;-59
2022/01/28 05:50:45;;;;;;;50.45;6.35;;;4.70;99.90;;;;;;5003251;28;20037;-56
2022/01/28 05:53:10;;;;;;;49.58;6.68;;;4.70;99.90;;;;;;5000109;28;20499;-59
2022/01/28 05:55:36;;;;;;;40.63;6.93;;;4.80;99.90;;;;;;4996008;28;20121;-59
2022/01/28 05:58:02;;;;;;;40.63;5.72;;;4.80;99.90;;;;;;5006135;28;20045;-59
2022/01/28 06:00:27;;;;;;;29.00;5.82;;;4.80;99.90;;;;;;5015230;28;20030;-55
2022/01/28 06:02:53;;;;;;;42.28;5.65;;;4.80;99.90;;;;;;5007794;28;20046;-56
2022/01/28 06:05:19;;;;;;;48.78;6.22;;;4.90;99.90;;;;;;5009773;28;20097;-52
2022/01/28 06:07:44;;;;;;;32.38;5.68;;;4.90;99.90;;;;;;5009789;28;20431;-56
2022/01/28 06:10:11;;;;;;;34.15;6.30;;;4.90;99.90;;;;;;5009600;28;20487;-58
2022/01/28 06:12:46;;;;;;;35.97;6.38;;;4.90;99.90;;;;;;5000147;28;20042;-59
2022/01/28 06:15:12;;;;;;;44.90;6.75;;;4.90;99.90;;;;;;5015447;28;20022;-59
2022/01/28 06:17:38;;;;;;;40.60;6.03;;;4.90;99.90;;;;;;5007358;28;20444;-57
2022/01/28 06:20:06;;;;;;;38.35;6.35;;;4.90;99.90;;;;;;5007406;28;20033;-60
2022/01/28 06:22:32;;;;;;;34.05;4.85;;;4.90;99.90;;;;;;5014462;28;20364;-57
2022/01/28 06:24:58;;;;;;;38.50;5.30;;;5.00;99.90;;;;;;5007282;28;20041;-56
2022/01/28 06:27:24;;;;;;;36.53;6.25;;;5.00;99.90;;;;;;5010804;28;20038;-57
2022/01/28 06:29:50;;;;;;;37.25;5.45;;;5.00;99.90;;;;;;5010211;28;20176;-57
2022/01/28 06:32:16;;;;;;;46.75;6.63;;;5.00;99.90;;;;;;5013875;28;20392;-58
2022/01/28 06:34:43;;;;;;;32.70;6.15;;;5.00;99.90;;;;;;5009172;28;20053;-57
2022/01/28 06:37:09;;;;;;;41.30;5.00;;;5.00;99.90;;;;;;5008722;28;20030;-58
2022/01/28 06:39:35;;;;;;;42.42;5.88;;;5.00;99.90;;;;;;5009529;28;20026;-59
2022/01/28 06:42:01;;;;;;;33.03;5.57;;;5.00;99.90;;;;;;5007616;28;20530;-60
2022/01/28 06:44:26;;;;;;;39.65;6.47;;;5.00;99.90;;;;;;5010252;28;20037;-56
2022/01/28 06:46:52;;;;;;;35.53;4.57;;;5.00;99.90;;;;;;5013221;28;20060;-55
2022/01/28 06:49:18;;;;;;;33.97;5.50;;;5.00;99.90;;;;;;5009956;28;20053;-56
2022/01/28 06:51:44;;;;;;;32.13;5.28;;;5.00;99.90;;;;;;5013092;28;20112;-57
2022/01/28 06:54:10;;;;;;;37.42;6.40;;;5.00;99.90;;;;;;5008501;28;20152;-57
2022/01/28 06:56:36;;;;;;;36.78;5.68;;;5.00;99.90;;;;;;5008919;28;20427;-56
2022/01/28 06:59:02;;;;;;;29.10;5.20;;;5.00;99.90;;;;;;5024293;28;20033;-56
2022/01/28 07:01:27;;;;;;;42.70;5.35;;;5.00;99.90;;;;;;5006405;28;20026;-57
2022/01/28 07:03:53;;;;;;;35.70;5.88;;;5.00;99.90;;;;;;5005942;28;20040;-55
2022/01/28 07:06:19;;;;;;;30.63;5.43;;;4.90;99.90;;;;;;5004712;28;20180;-55
2022/01/28 07:08:45;;;;;;;34.00;6.15;;;5.00;99.90;;;;;;5005426;28;20499;-56
2022/01/28 07:11:11;;;;;;;47.88;6.30;;;4.90;99.90;;;;;;5007600;28;20036;-57
2022/01/28 07:13:36;;;;;;;42.03;5.47;;;4.90;99.90;;;;;;5018833;28;20034;-59
2022/01/28 07:16:02;;;;;;;45.33;6.28;;;4.90;99.90;;;;;;5009932;28;20168;-54
2022/01/28 07:18:29;;;;;;;32.47;5.45;;;4.90;99.90;;;;;;5012921;28;20117;-61
2022/01/28 07:20:54;;;;;;;40.97;5.93;;;4.90;99.90;;;;;;5005673;28;20105;-63
2022/01/28 07:23:20;;;;;;;49.65;5.93;;;4.90;99.90;;;;;;5015923;28;20171;-60
2022/01/28 07:25:46;;;;;;;43.95;6.53;;;4.90;99.90;;;;;;5008459;28;20488;-51
2022/01/28 07:28:12;;;;;;;38.88;6.78;;;4.90;99.90;;;;;;5008181;28;20037;-52
2022/01/28 07:30:37;;;;;;;46.33;7.15;;;4.80;99.90;;;;;;5012177;28;20029;-56
2022/01/28 07:33:06;;;;;;;35.17;5.75;;;4.80;99.90;;;;;;5008073;28;20030;-55
2022/01/28 07:35:32;;;;;;;51.08;6.25;;;4.70;99.90;;;;;;5013679;28;20018;-52
2022/01/28 07:37:58;;;;;;;52.60;6.55;;;4.80;99.90;;;;;;5010373;28;20070;-59
2022/01/28 07:40:24;;;;;;;46.35;7.10;;;4.70;99.90;;;;;;5016776;28;20476;-59
2022/01/28 07:42:49;;;;;;;38.65;6.30;;;4.70;99.90;;;;;;5007221;28;20048;-58
2022/01/28 07:45:15;;;;;;;42.33;5.95;;;4.70;99.90;;;;;;5010322;28;20034;-61
2022/01/28 07:47:42;;;;;;;49.92;6.13;;;4.70;99.90;;;;;;5008694;28;20475;-55
2022/01/28 07:50:10;;;;;;;47.10;7.13;;;4.80;99.90;;;;;;5012356;28;20509;-59
2022/01/28 07:52:36;;;;;;;59.10;7.32;;;4.80;99.90;;;;;;5013869;28;20533;-54
2022/01/28 07:55:03;;;;;;;45.30;7.45;;;4.90;99.90;;;;;;5016143;28;20057;-52
2022/01/28 07:57:30;;;;;;;56.60;7.57;;;5.00;99.90;;;;;;5010794;28;20045;-55
2022/01/28 07:59:56;;;;;;;68.60;8.75;;;5.00;99.90;;;;;;5006804;28;20109;-58
2022/01/28 08:02:22;;;;;;;50.42;7.47;;;5.10;99.90;;;;;;5003218;28;20036;-54
2022/01/28 08:04:47;;;;;;;39.15;5.63;;;5.00;99.90;;;;;;5019256;28;20104;-53
2022/01/28 08:07:13;;;;;;;38.08;7.53;;;5.00;99.90;;;;;;5019837;28;20055;-56
2022/01/28 08:09:39;;;;;;;48.53;5.80;;;5.00;99.90;;;;;;5016817;28;20049;-56
2022/01/28 08:12:05;;;;;;;44.40;7.30;;;5.00;99.90;;;;;;5023275;28;20026;-56
2022/01/28 08:14:31;;;;;;;56.00;8.07;;;5.00;99.90;;;;;;5016487;28;20062;-58
2022/01/28 08:16:57;;;;;;;50.45;6.65;;;5.00;99.90;;;;;;5023443;28;20071;-53
2022/01/28 08:19:23;;;;;;;57.80;8.48;;;5.00;99.90;;;;;;5027503;28;20160;-56
2022/01/28 08:21:51;;;;;;;53.67;8.65;;;5.00;99.90;;;;;;5022984;28;20038;-59
2022/01/28 08:24:17;;;;;;;45.67;7.97;;;5.00;99.90;;;;;;5020479;28;20065;-56
2022/01/28 08:26:43;;;;;;;43.60;7.22;;;5.00;99.90;;;;;;5014581;28;20065;-58
2022/01/28 08:29:08;;;;;;;51.75;5.93;;;5.00;99.90;;;;;;5018517;28;20041;-55
2022/01/28 08:31:35;;;;;;;47.53;7.07;;;5.10;99.90;;;;;;5011085;28;20065;-57
2022/01/28 08:34:01;;;;;;;66.40;8.57;;;5.10;99.90;;;;;;5014386;28;20034;-52
2022/01/28 08:36:27;;;;;;;48.10;7.82;;;5.20;99.90;;;;;;5019469;28;20042;-60
2022/01/28 08:38:55;;;;;;;43.78;6.18;;;5.20;99.90;;;;;;5017607;28;20180;-57
2022/01/28 08:41:21;;;;;;;55.55;7.15;;;5.20;99.90;;;;;;5028126;28;20533;-48
2022/01/28 08:43:47;;;;;;;50.33;6.57;;;5.20;99.90;;;;;;5019565;28;20022;-54
2022/01/28 08:46:14;;;;;;;44.10;7.47;;;5.20;99.90;;;;;;5026756;28;20034;-50
2022/01/28 08:48:40;;;;;;;44.45;6.32;;;5.20;99.90;;;;;;5019290;28;20099;-56
2022/01/28 08:51:06;;;;;;;49.55;8.05;;;5.20;99.90;;;;;;5026934;28;20487;-51
2022/01/28 08:53:32;;;;;;;57.08;7.47;;;5.30;99.90;;;;;;5014932;28;20034;-58
2022/01/28 08:55:58;;;;;;;38.17;8.07;;;5.30;99.90;;;;;;5021117;28;20049;-50
2022/01/28 08:58:23;;;;;;;43.90;7.22;;;5.30;99.90;;;;;;5015898;28;20115;-52
2022/01/28 09:00:50;;;;;;;52.35;7.97;;;5.30;99.90;;;;;;5015430;28;20104;-56
2022/01/28 09:03:18;;;;;;;42.65;6.53;;;5.40;99.90;;;;;;5019937;28;20026;-56
2022/01/28 09:05:45;;;;;;;52.72;7.80;;;5.40;99.90;;;;;;5019854;28;20100;-55
2022/01/28 09:08:11;;;;;;;51.42;7.82;;;5.40;99.90;;;;;;5022968;28;20055;-56
2022/01/28 09:10:42;;;;;;;49.33;8.27;;;5.40;99.90;;;;;;5024879;28;20394;-57
2022/01/28 09:15:39;;;;;;;48.85;8.40;;;5.50;99.90;;;;;;5016779;28;20455;-58
2022/01/28 09:18:06;;;;;;;42.22;6.45;;;5.40;99.90;;;;;;5022767;28;20397;-59
2022/01/28 09:20:33;;;;;;;55.90;7.68;;;5.40;99.90;;;;;;5023564;28;20029;-60
2022/01/28 09:23:00;;;;;;;41.38;6.53;;;5.50;99.90;;;;;;5026695;28;20030;-56
2022/01/28 09:25:27;;;;;;;65.90;8.10;;;5.50;99.90;;;;;;5021253;28;20030;-61
2022/01/28 09:27:53;;;;;;;58.67;8.18;;;5.60;99.90;;;;;;5029322;28;20018;-59
2022/01/28 09:30:18;;;;;;;36.72;6.05;;;5.60;99.90;;;;;;5018963;28;20360;-59
2022/01/28 09:32:44;;;;;;;41.10;6.25;;;5.70;99.90;;;;;;5028997;28;20033;-58
2022/01/28 09:35:10;;;;;;;46.60;6.60;;;5.70;99.90;;;;;;5016615;28;20030;-59
2022/01/28 09:37:36;;;;;;;40.42;6.93;;;5.70;99.90;;;;;;5007543;28;20034;-58
2022/01/28 09:40:04;;;;;;;50.03;8.38;;;5.80;99.90;;;;;;5009084;28;20038;-61
2022/01/28 09:42:33;;;;;;;44.42;7.90;;;5.80;99.90;;;;;;5009808;28;21022;-59
2022/01/28 09:45:01;;;;;;;50.78;7.80;;;5.90;99.90;;;;;;5009408;28;20018;-61
2022/01/28 09:47:27;;;;;;;45.40;8.38;;;6.00;99.90;;;;;;5005229;28;20157;-59
2022/01/28 09:49:54;;;;;;;41.15;6.97;;;6.00;99.90;;;;;;5006209;28;20070;-59
2022/01/28 09:52:20;;;;;;;56.67;6.93;;;6.10;99.90;;;;;;5007953;28;20161;-60
2022/01/28 09:54:46;;;;;;;48.38;7.43;;;6.10;99.90;;;;;;5008597;28;20113;-59
2022/01/28 09:57:17;;;;;;;53.47;7.47;;;6.10;99.90;;;;;;5008512;28;20026;-53
2022/01/28 09:59:43;;;;;;;48.15;7.47;;;6.10;99.90;;;;;;5008293;28;20037;-58
2022/01/28 10:02:09;;;;;;;45.97;7.25;;;6.20;99.90;;;;;;5007328;28;20026;-60
2022/01/28 10:04:35;;;;;;;50.15;7.85;;;6.20;99.90;;;;;;5009683;28;20103;-59
2022/01/28 10:07:10;;;;;;;55.95;7.10;;;6.30;99.90;;;;;;5006488;28;20061;-58
2022/01/28 10:09:36;;;;;;;39.50;6.68;;;6.30;99.90;;;;;;5008256;28;20038;-59
2022/01/28 10:12:43;;;;;;;45.42;6.95;;;6.30;99.90;;;;;;5009464;28;20407;-59
2022/01/28 10:15:28;;;;;;;47.97;7.70;;;6.30;99.90;;;;;;5009217;28;20081;-57
2022/01/28 10:17:56;;;;;;;52.22;7.05;;;6.40;99.90;;;;;;5009258;28;20105;-60
2022/01/28 10:20:24;;;;;;;52.33;7.78;;;6.40;99.90;;;;;;5009742;28;20068;-59
2022/01/28 10:22:54;;;;;;;44.90;7.35;;;6.50;99.90;;;;;;5007458;28;20021;-60
2022/01/28 10:25:36;;;;;;;67.80;9.73;;;6.60;99.90;;;;;;5003641;28;20069;-60
2022/01/28 10:28:07;;;;;;;75.80;8.75;;;6.70;99.90;;;;;;5001821;28;20057;-58
2022/01/28 10:30:37;;;;;;;96.00;13.15;;;6.90;99.90;;;;;;5007928;28;20026;-60
2022/01/28 10:33:22;;;;;;;45.17;8.18;;;7.20;99.90;;;;;;5003301;28;20033;-55
2022/01/28 10:35:57;;;;;;;36.35;7.55;;;7.30;99.90;;;;;;5003433;28;20375;-60
2022/01/28 10:38:35;;;;;;;53.55;7.18;;;7.40;99.90;;;;;;5009459;28;20099;-57
2022/01/28 10:41:14;;;;;;;45.90;7.10;;;7.40;99.90;;;;;;5003734;28;20030;-56
2022/01/28 10:43:47;;;;;;;37.47;6.82;;;7.50;99.90;;;;;;5005837;28;20072;-60
2022/01/28 10:46:30;;;;;;;52.08;7.97;;;7.60;99.90;;;;;;5003794;28;20389;-62
2022/01/28 10:49:02;;;;;;;37.17;7.07;;;7.70;99.90;;;;;;4987478;28;20038;-64
2022/01/28 10:51:43;;;;;;;42.63;6.97;;;7.90;99.90;;;;;;5003591;28;20125;-62
2022/01/28 10:54:13;;;;;;;53.53;7.25;;;7.80;99.90;;;;;;5007220;28;20084;-61
2022/01/28 10:56:47;;;;;;;38.70;6.90;;;7.80;99.90;;;;;;5007013;28;20037;-60
2022/01/28 10:59:16;;;;;;;43.55;7.78;;;7.80;99.90;;;;;;5007717;28;20030;-61
2022/01/28 11:01:43;;;;;;;40.03;6.45;;;7.70;99.90;;;;;;5006813;28;20041;-63
2022/01/28 11:04:13;;;;;;;51.45;7.07;;;7.70;99.90;;;;;;5007834;28;20489;-63
2022/01/28 11:06:43;;;;;;;38.08;6.45;;;7.70;99.90;;;;;;5006954;28;20034;-60
2022/01/28 11:09:10;;;;;;;44.97;7.05;;;7.60;99.90;;;;;;5009041;28;20487;-61
2022/01/28 11:11:37;;;;;;;45.33;6.53;;;7.70;99.90;;;;;;5006032;28;20152;-60
2022/01/28 11:14:02;;;;;;;34.67;7.28;;;7.70;99.90;;;;;;5007895;28;20096;-61
2022/01/28 11:16:28;;;;;;;48.53;6.90;;;7.70;99.90;;;;;;5006914;28;20581;-60
2022/01/28 11:18:56;;;;;;;40.70;6.55;;;7.70;99.90;;;;;;5007818;28;20030;-61
2022/01/28 11:21:48;;;;;;;44.25;6.20;;;7.70;99.90;;;;;;5007441;28;20018;-61
2022/01/28 11:24:50;;;;;;;37.80;6.55;;;7.80;99.90;;;;;;5007584;28;20071;-60
2022/01/28 11:27:30;;;;;;;41.90;7.30;;;7.80;99.90;;;;;;5009770;28;20038;-59
2022/01/28 11:30:16;;;;;;;39.55;7.18;;;7.80;99.90;;;;;;5006762;28;20310;-61
2022/01/28 11:33:06;;;;;;;35.22;5.85;;;7.80;99.90;;;;;;5003675;28;20349;-61
2022/01/28 11:35:32;;;;;;;51.85;6.60;;;7.90;99.90;;;;;;4998783;28;20030;-61
2022/01/28 11:38:04;;;;;;;32.45;7.00;;;8.00;99.90;;;;;;5006141;28;20036;-62
2022/01/28 11:40:51;;;;;;;;;;;8.10;99.90;;;;;;5009731;28;20502;-61
2022/01/28 11:43:21;;;;;;;45.05;7.15;;;8.20;99.90;;;;;;5010575;28;20271;-61
2022/01/28 11:45:47;;;;;;;51.33;7.28;;;8.30;99.90;;;;;;5005489;28;20557;-62
2022/01/28 11:48:13;;;;;;;58.28;8.32;;;8.30;99.90;;;;;;5033199;28;20467;-64
2022/01/28 11:50:39;;;;;;;76.07;15.57;;;8.30;99.90;;;;;;5031338;28;20099;-54
2022/01/28 11:53:22;;;;;;;61.53;12.23;;;8.30;99.90;;;;;;5006508;28;20384;-54
2022/01/28 11:56:04;;;;;;;77.15;18.80;;;8.40;99.90;;;;;;5023459;28;20034;-60
2022/01/28 11:58:52;;;;;;;83.55;16.95;;;8.50;99.90;;;;;;5014214;28;20064;-57
2022/01/28 12:01:25;;;;;;;35.67;6.45;;;8.70;99.90;;;;;;5016447;28;20109;-57
2022/01/28 12:04:11;;;;;;;38.33;5.95;;;8.80;99.90;;;;;;5021742;28;20018;-56
2022/01/28 12:06:38;;;;;;;40.70;6.28;;;8.90;99.90;;;;;;5022049;28;20029;-57
2022/01/28 12:09:05;;;;;;;38.30;5.13;;;9.30;99.90;;;;;;5023179;28;20112;-59
2022/01/28 12:11:44;;;;;;;30.83;5.97;;;10.10;99.90;;;;;;5023342;28;20038;-54
2022/01/28 12:14:13;;;;;;;37.80;5.75;;;11.00;99.90;;;;;;5016395;28;20105;-54
2022/01/28 12:16:42;;;;;;;34.25;5.75;;;11.80;99.90;;;;;;5016413;28;20061;-54
2022/01/28 12:19:18;;;;;;;29.02;6.55;;;12.00;99.90;;;;;;5020922;28;20886;-56
2022/01/28 12:22:09;;;;;;;36.08;6.35;;;12.30;99.90;;;;;;5013118;28;20572;-55
2022/01/28 12:24:37;;;;;;;29.17;5.72;;;12.90;99.90;;;;;;5012959;28;20053;-54
2022/01/28 12:27:08;;;;;;;37.90;6.32;;;13.10;99.90;;;;;;5014797;28;20121;-55
2022/01/28 12:29:43;;;;;;;27.65;5.65;;;13.40;99.90;;;;;;5015906;28;20025;-52
2022/01/28 12:32:10;;;;;;;38.35;6.20;;;13.60;99.90;;;;;;5013868;28;20030;-59
2022/01/28 12:34:43;;;;;;;37.40;6.20;;;13.80;99.90;;;;;;5014978;28;20022;-58
2022/01/28 12:37:09;;;;;;;32.38;5.47;;;13.30;99.90;;;;;;5019290;28;20029;-56
2022/01/28 12:39:38;;;;;;;34.50;6.47;;;13.20;99.90;;;;;;5012340;28;20030;-53
2022/01/28 12:42:22;;;;;;;40.65;6.72;;;13.00;99.90;;;;;;5017550;28;20041;-56
2022/01/28 12:44:56;;;;;;;29.42;6.32;;;13.20;99.90;;;;;;5026681;28;20046;-56
2022/01/28 12:47:23;;;;;;;30.67;5.82;;;13.10;99.90;;;;;;5022323;28;20030;-53
2022/01/28 12:49:57;;;;;;;42.67;6.78;;;12.90;99.90;;;;;;5016897;28;20124;-57
2022/01/28 12:52:23;;;;;;;24.17;4.97;;;13.00;99.90;;;;;;5018986;28;20032;-55
2022/01/28 12:54:49;;;;;;;35.92;6.63;;;13.10;99.90;;;;;;5021885;28;20053;-55
2022/01/28 12:57:17;;;;;;;40.83;7.30;;;12.50;99.90;;;;;;5004501;28;20116;-55
2022/01/28 12:59:47;;;;;;;35.60;6.32;;;12.20;99.90;;;;;;5009159;28;20037;-60
2022/01/28 13:02:14;;;;;;;32.80;6.63;;;12.20;99.90;;;;;;5015139;28;20475;-55
2022/01/28 13:05:32;;;;;;;35.80;6.32;;;12.60;99.90;;;;;;5015711;28;20050;-58
2022/01/28 13:10:25;;;;;;;51.00;6.95;;;12.70;99.90;;;;;;5018855;28;20036;-58
2022/01/28 13:12:52;;;;;;;36.60;6.10;;;12.20;99.90;;;;;;5024913;28;20037;-57
2022/01/28 13:15:19;;;;;;;42.22;6.60;;;11.40;99.90;;;;;;5024725;28;20360;-56
2022/01/28 13:18:00;;;;;;;40.25;7.22;;;10.30;99.90;;;;;;5015775;28;20509;-56
2022/01/28 13:20:40;;;;;;;38.42;6.13;;;9.90;99.90;;;;;;5018371;28;20072;-57
2022/01/28 13:23:07;;;;;;;37.75;5.30;;;9.40;99.90;;;;;;5022542;28;20021;-60
2022/01/28 13:25:33;;;;;;;41.83;7.57;;;8.80;99.90;;;;;;5029470;28;20017;-54
2022/01/28 13:28:02;;;;;;;38.30;7.18;;;8.90;99.90;;;;;;5022346;28;20455;-54
2022/01/28 13:30:33;;;;;;;36.20;6.10;;;8.90;99.90;;;;;;5027083;28;20026;-55
2022/01/28 13:33:05;;;;;;;37.83;6.13;;;9.00;99.90;;;;;;5017728;28;20033;-55
2022/01/28 13:35:33;;;;;;;45.42;7.35;;;8.90;99.90;;;;;;5022350;28;20257;-56
2022/01/28 13:38:06;;;;;;;46.55;7.57;;;8.70;99.90;;;;;;5027226;28;20029;-55
2022/01/28 13:40:37;;;;;;;51.60;7.20;;;8.80;99.90;;;;;;5022394;28;20025;-56
2022/01/28 13:43:12;;;;;;;43.05;6.50;;;8.50;99.90;;;;;;5026887;28;20029;-55
2022/01/28 13:45:40;;;;;;;52.95;6.90;;;8.30;99.90;;;;;;5011828;28;20029;-58
2022/01/28 13:48:15;;;;;;;42.90;6.82;;;8.20;99.90;;;;;;5010024;28;20059;-56
2022/01/28 13:50:46;;;;;;;35.95;7.20;;;8.10;99.90;;;;;;5016292;28;20115;-58
2022/01/28 13:53:33;;;;;;;38.60;6.80;;;8.00;99.90;;;;;;5022715;28;20068;-58
2022/01/28 13:55:59;;;;;;;58.25;7.10;;;7.70;99.90;;;;;;5014519;28;20033;-54
2022/01/28 13:58:26;;;;;;;46.50;6.97;;;7.40;99.90;;;;;;5018025;28;20026;-56
2022/01/28 14:00:53;;;;;;;43.58;6.35;;;7.40;99.90;;;;;;5024642;28;20036;-53
2022/01/28 14:03:26;;;;;;;42.83;7.43;;;7.30;99.90;;;;;;5022802;28;20033;-56
2022/01/28 14:05:55;;;;;;;48.15;7.78;;;7.30;99.90;;;;;;5024696;28;20033;-57
2022/01/28 14:09:05;;;;;;;35.25;6.72;;;7.30;99.90;;;;;;5022292;28;20153;-55
2022/01/28 14:11:52;;;;;;;41.85;6.35;;;7.40;99.90;;;;;;4987936;28;20503;-56
2022/01/28 14:14:34;;;;;;;29.48;6.72;;;7.40;99.90;;;;;;4988214;28;20554;-57
2022/01/28 14:17:07;;;;;;;40.58;6.90;;;7.40;99.90;;;;;;5003493;28;20054;-56
2022/01/28 14:19:35;;;;;;;44.67;5.63;;;7.40;99.90;;;;;;5021900;28;20025;-57
2022/01/28 14:22:01;;;;;;;43.78;7.13;;;7.40;99.90;;;;;;5011275;28;20026;-58
2022/01/28 14:24:31;;;;;;;41.17;7.13;;;7.50;99.90;;;;;;5009072;28;20437;-53
2022/01/28 14:27:12;;;;;;;60.88;8.00;;;7.60;99.90;;;;;;5022228;28;20021;-56
2022/01/28 14:32:21;;;;;;;44.25;6.82;;;7.60;99.90;;;;;;5017609;28;20029;-57